Time;durP1;ratioP1;P1;durP2;ratioP2;P2;SDS_P1;SDS_P2;PMS_P1;PMS_P2;Temp;Humidity;BMP_temperature;BMP_pressure;BME280_temperature;BME280_humidity;BME280_pressure;Samples;Min_cycle;Max_cycle;Signal;HPM_P1;HPM_P2
2022/09/21 00:00:44;;;;;;;7.72;4.35;;;;;;;8.38;100.00;101219.06;20813450;28;20053;-70
2022/09/21 00:10:45;;;;;;;9.27;4.70;;;;;;;8.25;100.00;101220.72;20812694;28;20083;-71
2022/09/21 00:20:47;;;;;;;10.25;4.32;;;;;;;8.18;100.00;101229.34;20812425;28;20056;-70
2022/09/21 00:30:50;;;;;;;12.93;4.70;;;;;;;8.02;100.00;101230.97;20810643;28;20107;-71
2022/09/21 00:40:53;;;;;;;8.93;4.38;;;;;;;8.00;100.00;101227.50;20810624;28;20490;-70
2022/09/21 00:50:54;;;;;;;9.40;4.63;;;;;;;7.90;100.00;101226.50;20810560;28;20137;-71
2022/09/21 01:00:56;;;;;;;8.95;4.78;;;;;;;7.82;100.00;101225.59;20809396;28;20053;-70
2022/09/21 01:10:57;;;;;;;9.82;5.00;;;;;;;7.80;100.00;101226.44;20808515;28;20049;-70
2022/09/21 01:20:59;;;;;;;9.60;4.60;;;;;;;7.65;100.00;101220.22;20809703;28;20056;-71
2022/09/21 01:31:04;;;;;;;10.43;4.25;;;;;;;7.51;100.00;101228.75;20806745;28;20432;-71
2022/09/21 01:41:06;;;;;;;9.88;4.82;;;;;;;7.49;100.00;101230.50;20824651;28;20052;-70
2022/09/21 01:51:08;;;;;;;8.70;5.20;;;;;;;7.35;100.00;101233.81;20824111;28;20462;-70
2022/09/21 02:01:09;;;;;;;9.85;5.47;;;;;;;7.30;100.00;101243.31;20822894;28;20075;-70
2022/09/21 02:11:12;;;;;;;12.60;5.38;;;;;;;7.20;100.00;101241.47;20822411;28;20472;-71
2022/09/21 02:21:14;;;;;;;11.30;4.60;;;;;;;7.13;100.00;101229.22;20822592;28;20052;-70
2022/09/21 02:31:15;;;;;;;17.50;5.20;;;;;;;6.84;100.00;101234.94;20820867;28;20049;-70
2022/09/21 02:41:18;;;;;;;10.60;5.18;;;;;;;6.78;100.00;101229.66;20819708;28;20058;-70
2022/09/21 02:51:19;;;;;;;9.60;5.20;;;;;;;6.90;100.00;101231.56;20818727;28;20497;-70
2022/09/21 03:01:21;;;;;;;12.20;6.07;;;;;;;7.00;100.00;101219.53;20776287;22;20485;-74
2022/09/21 03:11:22;;;;;;;16.95;6.85;;;;;;;6.83;100.00;101227.13;20735556;28;20422;-73
2022/09/21 03:21:23;;;;;;;20.35;7.68;;;;;;;6.69;100.00;101224.34;20734593;28;20502;-72
2022/09/21 03:31:25;;;;;;;14.07;7.20;;;;;;;6.72;100.00;101223.50;20732324;28;20145;-71
2022/09/21 03:41:26;;;;;;;21.83;8.02;;;;;;;6.55;100.00;101244.09;20731443;28;20054;-73
2022/09/21 03:51:28;;;;;;;17.55;8.57;;;;;;;6.51;100.00;101244.88;20732076;28;20517;-73
2022/09/21 04:01:30;;;;;;;11.85;6.43;;;;;;;6.26;100.00;101249.72;20729956;28;20065;-72
2022/09/21 04:11:32;;;;;;;10.90;6.18;;;;;;;6.22;100.00;101255.72;20729138;28;20145;-72
2022/09/21 04:21:33;;;;;;;11.88;7.05;;;;;;;6.21;100.00;101267.00;20730485;28;20140;-72
2022/09/21 04:31:34;;;;;;;15.70;9.30;;;;;;;6.14;100.00;101254.75;20728498;28;20073;-72
2022/09/21 04:41:36;;;;;;;18.83;8.52;;;;;;;6.19;100.00;101268.72;20728562;28;20061;-72
2022/09/21 04:51:37;;;;;;;18.58;8.98;;;;;;;6.22;100.00;101278.25;20727176;28;20076;-72
2022/09/21 05:01:39;;;;;;;17.48;8.48;;;;;;;6.16;100.00;101279.91;20725846;28;20062;-73
2022/09/21 05:11:40;;;;;;;18.50;9.35;;;;;;;6.14;100.00;101278.16;20725276;28;20057;-72
2022/09/21 05:21:42;;;;;;;17.15;8.43;;;;;;;6.08;100.00;101283.22;20728273;28;20426;-72
2022/09/21 05:31:43;;;;;;;21.08;9.50;;;;;;;6.21;100.00;101298.19;20725244;28;20470;-72
2022/09/21 05:41:44;;;;;;;20.58;10.57;;;;;;;6.19;100.00;101302.50;20725194;28;20081;-73
2022/09/21 05:51:46;;;;;;;17.10;9.35;;;;;;;6.21;100.00;101303.41;20724199;28;20050;-73
2022/09/21 06:01:47;;;;;;;19.90;9.57;;;;;;;6.34;100.00;101307.94;20723189;28;20073;-71
2022/09/21 06:11:48;;;;;;;18.88;9.90;;;;;;;6.61;100.00;101319.63;20723522;28;20564;-70
2022/09/21 06:21:50;;;;;;;19.75;9.80;;;;;;;6.77;100.00;101336.38;20733199;28;20049;-71
2022/09/21 06:31:51;;;;;;;25.50;10.63;;;;;;;7.04;100.00;101335.88;20737762;28;20656;-71
2022/09/21 06:41:52;;;;;;;20.75;9.68;;;;;;;7.29;100.00;101340.56;20732763;28;20054;-72
2022/09/21 06:51:54;;;;;;;17.88;8.98;;;;;;;7.56;100.00;101337.41;20733485;28;20054;-71
2022/09/21 07:01:57;;;;;;;18.63;9.80;;;;;;;7.80;100.00;101336.78;20730508;28;20149;-71
2022/09/21 07:11:59;;;;;;;20.52;9.73;;;;;;;8.12;100.00;101331.03;20715480;28;20053;-70
2022/09/21 07:22:00;;;;;;;16.10;9.02;;;;;;;8.42;100.00;101344.38;20703209;28;20598;-72
2022/09/21 07:32:01;;;;;;;17.17;9.73;;;;;;;8.95;100.00;101341.25;20709710;28;20054;-71
2022/09/21 07:42:03;;;;;;;16.52;8.68;;;;;;;9.06;100.00;101353.53;20732167;28;20144;-71
2022/09/21 07:52:04;;;;;;;20.83;9.52;;;;;;;9.55;100.00;101343.31;20731782;28;20513;-72
2022/09/21 08:02:10;;;;;;;17.08;8.95;;;;;;;9.73;100.00;101335.53;20729841;28;20482;-73
2022/09/21 08:12:12;;;;;;;16.02;9.32;;;;;;;10.14;100.00;101339.97;20730066;28;20490;-72
2022/09/21 08:22:13;;;;;;;17.42;9.30;;;;;;;10.28;100.00;101341.75;20729760;28;20061;-70
2022/09/21 08:32:14;;;;;;;17.30;9.00;;;;;;;10.62;100.00;101340.88;20727622;28;20077;-71
2022/09/21 08:42:36;;;;;;;17.60;8.52;;;;;;;11.02;100.00;101339.94;20727602;28;20448;-68
2022/09/21 08:52:37;;;;;;;15.48;7.10;;;;;;;11.23;100.00;101339.00;20726748;28;20100;-68
2022/09/21 09:02:38;;;;;;;14.90;6.75;;;;;;;11.54;100.00;101342.34;20725718;28;20494;-70
2022/09/21 09:12:40;;;;;;;10.95;5.90;;;;;;;12.05;100.00;101321.97;20725044;28;20082;-68
2022/09/21 09:22:41;;;;;;;12.30;5.10;;;;;;;12.27;100.00;101327.09;20725029;28;20057;-68
2022/09/21 09:32:42;;;;;;;9.15;3.58;;;;;;;12.69;100.00;101315.31;20725441;28;20108;-68
2022/09/21 09:42:44;;;;;;;9.30;4.22;;;;;;;12.95;100.00;101301.91;20725509;28;20108;-69
2022/09/21 09:52:45;;;;;;;7.60;3.80;;;;;;;13.43;100.00;101294.34;20728302;28;20081;-70
2022/09/21 10:02:48;;;;;;;10.30;3.97;;;;;;;13.47;100.00;101280.28;20741353;28;20076;-69
2022/09/21 10:12:49;;;;;;;12.48;4.60;;;;;;;13.97;100.00;101275.16;20742091;28;20046;-69
2022/09/21 10:22:50;;;;;;;8.13;3.10;;;;;;;14.31;100.00;101264.94;20740659;28;20080;-70
2022/09/21 10:32:52;;;;;;;9.68;3.03;;;;;;;14.27;95.94;101265.88;20737451;28;20153;-69
2022/09/21 10:42:53;;;;;;;6.95;2.38;;;;;;;14.59;94.14;101245.13;20737753;28;20058;-69
2022/09/21 10:52:55;;;;;;;7.30;2.58;;;;;;;14.84;92.02;101244.66;20733958;28;20058;-69
2022/09/21 11:02:57;;;;;;;5.70;2.47;;;;;;;14.45;89.01;101249.75;20732462;28;20081;-69
2022/09/21 11:12:58;;;;;;;5.75;1.80;;;;;;;14.76;86.83;101243.94;20735227;28;20053;-72
2022/09/21 11:23:00;;;;;;;5.63;1.00;;;;;;;15.33;81.54;101228.69;20733141;28;20054;-75
2022/09/21 11:33:01;;;;;;;2.85;1.05;;;;;;;15.55;81.22;101220.25;20732398;28;20517;-75
2022/09/21 11:43:03;;;;;;;5.05;1.20;;;;;;;16.19;80.56;101196.72;20740403;28;20432;-74
2022/09/21 11:53:04;;;;;;;3.22;0.90;;;;;;;15.73;75.80;101203.16;20731674;28;20145;-75
2022/09/21 12:03:06;;;;;;;4.15;1.27;;;;;;;15.80;76.13;101184.47;20732082;28;20592;-75
2022/09/21 12:13:07;;;;;;;3.25;1.20;;;;;;;15.46;76.42;101186.16;20730932;28;20148;-75
2022/09/21 12:23:09;;;;;;;4.07;0.70;;;;;;;15.60;75.26;101174.38;20730897;28;20056;-75
2022/09/21 12:33:10;;;;;;;1.42;0.57;;;;;;;15.95;56.26;101159.44;20728920;28;20077;-75
2022/09/21 12:43:11;;;;;;;4.03;0.77;;;;;;;16.16;53.52;101166.84;20728298;28;20054;-75
2022/09/21 12:53:13;;;;;;;3.20;1.00;;;;;;;16.40;52.90;101153.88;20728269;28;20100;-76
2022/09/21 13:03:14;;;;;;;2.88;0.63;;;;;;;16.46;52.72;101153.69;20726672;28;20092;-75
2022/09/21 13:13:16;;;;;;;1.75;0.52;;;;;;;16.27;53.61;101136.59;20726668;28;20050;-75
2022/09/21 13:23:18;;;;;;;3.33;0.63;;;;;;;16.37;52.03;101135.44;20725243;28;20104;-75
2022/09/21 13:33:19;;;;;;;2.00;0.60;;;;;;;16.72;53.79;101121.25;20724223;28;20056;-75
2022/09/21 13:43:20;;;;;;;1.02;0.50;;;;;;;16.48;53.40;101122.81;20724908;28;20085;-75
2022/09/21 13:53:22;;;;;;;1.63;0.68;;;;;;;16.59;49.54;101102.19;20724311;28;20054;-75
2022/09/21 14:03:23;;;;;;;1.90;0.55;;;;;;;16.63;50.04;101089.75;20724237;28;20465;-75
2022/09/21 14:13:24;;;;;;;1.70;0.50;;;;;;;16.89;49.31;101089.84;20720325;28;20513;-74
2022/09/21 14:23:26;;;;;;;1.65;0.50;;;;;;;16.61;46.53;101076.56;20723789;28;20108;-74
2022/09/21 14:33:28;;;;;;;2.53;0.40;;;;;;;16.87;47.49;101083.75;20723020;28;20062;-74
2022/09/21 14:43:29;;;;;;;2.70;0.65;;;;;;;16.72;49.33;101072.75;20731266;28;20054;-74
2022/09/21 14:53:33;;;;;;;1.20;0.32;;;;;;;16.80;48.42;101068.97;20736142;28;20140;-74
2022/09/21 15:03:38;;;;;;;1.33;0.47;;;;;;;16.70;48.29;101054.28;20734231;28;20141;-74
2022/09/21 15:13:40;;;;;;;1.90;0.50;;;;;;;16.65;48.60;101051.78;20735286;28;20258;-74
2022/09/21 15:23:41;;;;;;;3.20;1.00;;;;;;;16.86;48.33;101033.53;20732585;28;20082;-74
2022/09/21 15:33:45;;;;;;;1.33;0.60;;;;;;;16.71;46.08;101036.63;20732120;28;20073;-74
2022/09/21 15:43:46;;;;;;;1.58;0.47;;;;;;;16.60;46.76;101037.81;20730580;28;20192;-75
2022/09/21 15:53:48;;;;;;;2.47;0.65;;;;;;;16.62;46.14;101030.72;20731295;28;20064;-74
2022/09/21 16:03:49;;;;;;;0.60;0.40;;;;;;;16.48;48.47;101032.94;20722208;28;20060;-74
2022/09/21 16:24:17;;;;;;;2.53;1.02;;;;;;;16.31;50.51;101043.13;20732333;28;20144;-74
2022/09/21 16:34:43;;;;;;;2.20;0.98;;;;;;;16.22;51.30;101056.59;20718470;28;20042;-74
2022/09/21 16:45:10;;;;;;;3.22;1.23;;;;;;;16.14;51.13;101056.78;20735098;28;20516;-75
2022/09/21 16:55:35;;;;;;;3.45;1.30;;;;;;;15.70;54.29;101063.31;20728879;28;20045;-75
2022/09/21 17:06:01;;;;;;;2.05;0.60;;;;;;;15.37;55.80;101064.06;20714838;28;20498;-75
2022/09/21 17:16:02;;;;;;;3.05;1.27;;;;;;;15.10;57.02;101067.41;20720945;28;20140;-76
2022/09/21 17:26:04;;;;;;;7.05;2.83;;;;;;;14.68;59.42;101063.97;20723396;28;20120;-75
2022/09/21 17:36:05;;;;;;;4.05;1.92;;;;;;;14.37;61.05;101062.84;20721135;28;20054;-74
2022/09/21 17:46:07;;;;;;;3.28;1.42;;;;;;;14.09;62.78;101070.44;20717185;28;20141;-75
2022/09/21 17:56:08;;;;;;;4.38;1.15;;;;;;;13.74;65.99;101083.38;20712872;28;20062;-74
2022/09/21 18:06:09;;;;;;;17.48;3.13;;;;;;;13.28;70.55;101092.91;20716963;28;20042;-74
2022/09/21 18:16:11;;;;;;;11.98;2.60;;;;;;;12.87;73.76;101104.00;20719133;28;20141;-76
2022/09/21 18:26:14;;;;;;;5.03;1.10;;;;;;;12.43;77.52;101102.81;20729672;28;20097;-75
2022/09/21 18:36:15;;;;;;;4.97;1.75;;;;;;;12.33;75.76;101115.19;20732305;28;20139;-75
2022/09/21 18:46:17;;;;;;;5.15;1.90;;;;;;;12.34;74.85;101121.31;20727241;28;20149;-75
2022/09/21 18:56:18;;;;;;;6.22;2.53;;;;;;;12.32;73.38;101123.09;20725463;28;20076;-76
2022/09/21 19:06:21;;;;;;;5.00;1.42;;;;;;;12.03;76.32;101123.41;20729339;28;20144;-75
2022/09/21 19:16:22;;;;;;;5.63;1.98;;;;;;;11.89;75.59;101141.91;20729874;28;20084;-75
2022/09/21 19:26:23;;;;;;;4.10;1.67;;;;;;;11.79;74.24;101132.34;20729653;28;20062;-75
2022/09/21 19:36:25;;;;;;;4.72;2.13;;;;;;;11.53;75.12;101128.19;20728723;28;20140;-75
2022/09/21 19:46:26;;;;;;;9.88;3.20;;;;;;;11.46;72.89;101142.22;20728014;28;20156;-77
2022/09/21 20:06:54;;;;;;;;;;;;;;;11.06;75.29;101141.59;20723236;28;20095;-75
2022/09/21 20:16:55;;;;;;;4.43;1.40;;;;;;;10.74;79.84;101141.78;20716447;28;20230;-74
2022/09/21 20:26:57;;;;;;;5.57;2.67;;;;;;;10.51;83.83;101145.38;20722614;28;20422;-76
2022/09/21 20:36:58;;;;;;;10.20;4.55;;;;;;;10.41;82.70;101141.03;20724204;28;20488;-76
2022/09/21 20:47:00;;;;;;;5.40;1.67;;;;;;;10.24;86.51;101150.69;20722736;28;20367;-76
2022/09/21 20:57:01;;;;;;;4.35;1.63;;;;;;;10.08;86.03;101147.19;20723227;28;20156;-75
2022/09/21 21:07:03;;;;;;;4.30;2.00;;;;;;;10.05;87.29;101154.16;20719715;28;20125;-76
2022/09/21 21:17:04;;;;;;;5.20;1.95;;;;;;;9.82;87.69;101149.84;20721248;28;20054;-75
2022/09/21 21:27:06;;;;;;;5.10;1.70;;;;;;;9.66;100.00;101148.97;20719897;28;20053;-74
2022/09/21 21:37:08;;;;;;;5.03;2.10;;;;;;;9.39;100.00;101155.06;20721735;28;20086;-74
2022/09/21 21:47:10;;;;;;;5.70;2.03;;;;;;;9.22;100.00;101141.97;20721623;28;20310;-74
2022/09/21 21:57:32;;;;;;;5.72;2.20;;;;;;;8.96;100.00;101141.91;20737010;28;20045;-74
2022/09/21 22:07:33;;;;;;;7.50;2.05;;;;;;;8.80;100.00;101134.88;20737953;28;20152;-74
2022/09/21 22:17:34;;;;;;;8.18;2.33;;;;;;;8.62;100.00;101145.25;20738255;28;20057;-75
2022/09/21 22:27:36;;;;;;;4.93;2.13;;;;;;;8.40;100.00;101137.34;20738088;28;20054;-76
2022/09/21 22:37:37;;;;;;;5.90;2.30;;;;;;;7.95;100.00;101144.00;20736394;28;20494;-75
2022/09/21 22:47:40;;;;;;;4.55;1.90;;;;;;;7.91;100.00;101144.84;20736427;28;20064;-77
2022/09/21 22:57:41;;;;;;;3.95;1.90;;;;;;;7.92;100.00;101143.97;20735369;28;20069;-76
2022/09/21 23:07:43;;;;;;;5.97;2.05;;;;;;;7.59;100.00;101146.31;20729905;28;20053;-76
2022/09/21 23:17:44;;;;;;;3.75;1.90;;;;;;;7.41;100.00;101134.00;20734057;28;20060;-75
2022/09/21 23:27:45;;;;;;;4.68;2.30;;;;;;;7.33;100.00;101138.25;20732818;28;20054;-76
2022/09/21 23:37:47;;;;;;;5.13;2.20;;;;;;;7.27;100.00;101126.06;20732137;28;20058;-76
2022/09/21 23:47:48;;;;;;;4.65;2.40;;;;;;;7.14;100.00;101127.69;20732115;28;20486;-75
2022/09/21 23:57:50;;;;;;;6.45;2.40;;;;;;;7.01;100.00;101111.94;20730738;28;20546;-76
